Hlavní strana
METAR-TAF:

METAR-TAF

Letiště :

San José, Kostarika

zeměpisná šířka: 09-57N, zeměpisná délka: 084-09W, výška: 994 m

Aktuální stav počasí

Zpráva byla vytvořena před 45 minutami, v 00:00 UTC
Východojihovýchodní vítr 8 kt
Teplota 20°C
Vlhkost vzduchu 83%
Tlak 1018 hPa
Viditelnost 10 km a více
Skoro jasno ve výšce 3000 ft
Zataženo ve výšce 10000 ft
slabé mrholení

METAR: MRPV 060000Z 12008KT 9999 -DZ FEW030 OVC100 20/17 A3006 NOSIG

Čas: 18:45 (00:45 UTC)

Předpověď počasí

Zpráva byla vytvořena před 1 hodinou a 45 minutami, v 23:00 UTC
Předpověď platná od 06 v 00 UTC do 06 v 24 UTC
Východní vítr 9 kt
Viditelnost 10 km a více
Skoro jasno ve výšce 3000 ft
Oblačno až skoro zataženo ve výšce 10000 ft
Dočasný
od 06 v 00 UTC do 06 v 06 UTC
mrholení

TAF: MRPV 052300Z 0600/0624 10009KT 9999 FEW030 BKN100 TX25/0618Z TN19/0610Z TEMPO 0600/0606 DZ

Stav a předpovědi počasí z více než 4 000 letišť (zprávy METAR a TAF).

Červené a žluté tečky na mapě představují dostupné meteorologické stanice.

Když kurzor umístíte na tečku, zobrazí se název stanice.

Pak kliknutím zobrazíte stav a předpověď počasí.

Chcete-li změnit mapu, kliknutím na zelené tlačítko se znaménkem +mapu přiblížíte, kliknutím na zelené tlačítko se znaménkem – mapu oddálíte a kliknutím na zelené šipky přejdete na sousední mapy.


METAR-TAF: